Portada
METAR-TAF:

METAR-TAF

Aeroports :

Ghriss, Algèria

latitud: 35-12N, longitud: 000-08E, altitud: 514 m

Observació

L'informe es va fer fa 32 minuts, a les 13:00 UTC
Vent 10 kt del Nord
Temperatura 38°C
Humitat 35%
Pressió 1016 hPa
Visibilitat: 6000 m
Escasses núvols a una alçada de 3000 ft
Núvols disperses a una alçada de 10000 ft

METAR: DAOV 191300Z 35010KT 6000 FEW030 SCT100 38/20 Q1016

Hora: 14:32 (13:32 UTC)

Pronòstic

L'informe es va fer fa 2 hores i 32 minuts, a les 11:00 UTC
Pronòstic vàlid del 19 a les 12 UTC al 19 a les 21 UTC
Vent 12 kt del Nord
Visibilitat: 6000 m
Escasses núvols a una alçada de 3000 ft
Cel ennuvolat a una alçada de 23300 ft
Probabilitat 30% :
Temporalment
l' 19 a les 15 UTC al 19 a les 21 UTC
Núvols disperses a una alçada de 2300 ft
Escasses núvols a una alçada de 3000 ft, Cumulonimbus.
Cel ennuvolat a una alçada de 10000 ft
tempesta, pluja

TAF: DAOV 191100Z 1912/1921 01012KT 6000 FEW030 BKN233 PROB30 TEMPO 1915/1921 -TSRA SCT023 FEW030CB BKN100

Observacions i pronòstics meteorològics de més de 4000 aeroports (METAR i TAF).

Les estacions disponibles són els punts grocs i vermells al mapa.

Posi el ratolí al punt desitjat per veure el nom de l'estació.

Feu clic per veure les observacions i els pronòstics meteorològics.

Per canviar el mapa: feu clic els botons verds amb una creu de color negre per apropar; al botó verd amb un guió per allunyar la imatge; o en les fletxes verdes per a mapes adjacents.


METAR-TAF: